sensor_id;sensor_type;location;lat;lon;timestamp;P1;durP1;ratioP1;P2;durP2;ratioP2
71125;SDS011;58785;55.566;38.058;2022-07-21T00:01:01;8.32;;;2.78;;
71125;SDS011;58785;55.566;38.058;2022-07-21T00:03:27;6.70;;;3.43;;
71125;SDS011;58785;55.566;38.058;2022-07-21T00:05:53;8.10;;;3.72;;
71125;SDS011;58785;55.566;38.058;2022-07-21T00:08:18;8.40;;;4.27;;
71125;SDS011;58785;55.566;38.058;2022-07-21T00:10:44;8.45;;;4.55;;
71125;SDS011;58785;55.566;38.058;2022-07-21T00:13:09;9.17;;;4.30;;
71125;SDS011;58785;55.566;38.058;2022-07-21T00:15:35;10.13;;;4.82;;
71125;SDS011;58785;55.566;38.058;2022-07-21T00:18:01;10.23;;;4.83;;
71125;SDS011;58785;55.566;38.058;2022-07-21T00:20:26;9.50;;;5.13;;
71125;SDS011;58785;55.566;38.058;2022-07-21T00:22:53;9.85;;;4.80;;
71125;SDS011;58785;55.566;38.058;2022-07-21T00:25:19;10.70;;;5.30;;
71125;SDS011;58785;55.566;38.058;2022-07-21T00:27:45;10.05;;;4.93;;
71125;SDS011;58785;55.566;38.058;2022-07-21T00:30:11;8.63;;;4.28;;
71125;SDS011;58785;55.566;38.058;2022-07-21T00:32:38;8.90;;;4.40;;
71125;SDS011;58785;55.566;38.058;2022-07-21T00:35:04;8.57;;;4.25;;
71125;SDS011;58785;55.566;38.058;2022-07-21T00:37:31;8.40;;;4.23;;
71125;SDS011;58785;55.566;38.058;2022-07-21T00:39:57;9.18;;;3.90;;
71125;SDS011;58785;55.566;38.058;2022-07-21T00:42:23;8.90;;;4.40;;
71125;SDS011;58785;55.566;38.058;2022-07-21T00:44:51;8.57;;;4.23;;
71125;SDS011;58785;55.566;38.058;2022-07-21T00:47:20;8.10;;;3.60;;
71125;SDS011;58785;55.566;38.058;2022-07-21T00:49:47;8.02;;;3.70;;
71125;SDS011;58785;55.566;38.058;2022-07-21T00:52:16;7.37;;;3.63;;
71125;SDS011;58785;55.566;38.058;2022-07-21T00:54:42;7.30;;;3.90;;
71125;SDS011;58785;55.566;38.058;2022-07-21T00:57:08;10.52;;;4.55;;
71125;SDS011;58785;55.566;38.058;2022-07-21T00:59:35;9.23;;;4.63;;
71125;SDS011;58785;55.566;38.058;2022-07-21T01:02:00;14.80;;;6.70;;
71125;SDS011;58785;55.566;38.058;2022-07-21T01:04:26;14.10;;;7.60;;
71125;SDS011;58785;55.566;38.058;2022-07-21T01:06:52;15.70;;;9.73;;
71125;SDS011;58785;55.566;38.058;2022-07-21T01:09:19;17.00;;;9.77;;
71125;SDS011;58785;55.566;38.058;2022-07-21T01:11:45;17.65;;;9.05;;
71125;SDS011;58785;55.566;38.058;2022-07-21T01:14:11;13.27;;;6.63;;
71125;SDS011;58785;55.566;38.058;2022-07-21T01:16:38;13.00;;;6.45;;
71125;SDS011;58785;55.566;38.058;2022-07-21T01:19:06;11.48;;;5.90;;
71125;SDS011;58785;55.566;38.058;2022-07-21T01:21:35;10.13;;;5.53;;
71125;SDS011;58785;55.566;38.058;2022-07-21T01:24:04;11.57;;;5.40;;
71125;SDS011;58785;55.566;38.058;2022-07-21T01:26:40;9.32;;;5.13;;
71125;SDS011;58785;55.566;38.058;2022-07-21T01:29:09;9.82;;;4.97;;
71125;SDS011;58785;55.566;38.058;2022-07-21T01:31:37;10.73;;;4.95;;
71125;SDS011;58785;55.566;38.058;2022-07-21T01:34:04;13.10;;;5.00;;
71125;SDS011;58785;55.566;38.058;2022-07-21T01:36:29;10.30;;;5.22;;
71125;SDS011;58785;55.566;38.058;2022-07-21T01:38:55;11.57;;;5.35;;
71125;SDS011;58785;55.566;38.058;2022-07-21T01:41:40;13.27;;;5.70;;
71125;SDS011;58785;55.566;38.058;2022-07-21T01:44:07;11.57;;;5.63;;
71125;SDS011;58785;55.566;38.058;2022-07-21T01:46:35;10.73;;;5.60;;
71125;SDS011;58785;55.566;38.058;2022-07-21T01:49:02;9.23;;;4.82;;
71125;SDS011;58785;55.566;38.058;2022-07-21T01:51:29;12.75;;;5.65;;
71125;SDS011;58785;55.566;38.058;2022-07-21T01:53:55;9.97;;;5.63;;
71125;SDS011;58785;55.566;38.058;2022-07-21T01:56:21;9.68;;;5.10;;
71125;SDS011;58785;55.566;38.058;2022-07-21T01:58:49;11.05;;;4.95;;
71125;SDS011;58785;55.566;38.058;2022-07-21T02:01:16;9.23;;;4.57;;
71125;SDS011;58785;55.566;38.058;2022-07-21T02:03:43;8.55;;;4.60;;
71125;SDS011;58785;55.566;38.058;2022-07-21T02:06:09;8.68;;;3.97;;
71125;SDS011;58785;55.566;38.058;2022-07-21T02:08:35;7.67;;;4.00;;
71125;SDS011;58785;55.566;38.058;2022-07-21T02:11:01;8.47;;;3.87;;
71125;SDS011;58785;55.566;38.058;2022-07-21T02:13:28;8.02;;;3.97;;
71125;SDS011;58785;55.566;38.058;2022-07-21T02:15:53;7.13;;;3.87;;
71125;SDS011;58785;55.566;38.058;2022-07-21T02:18:19;8.85;;;3.97;;
71125;SDS011;58785;55.566;38.058;2022-07-21T02:20:45;8.00;;;3.85;;
71125;SDS011;58785;55.566;38.058;2022-07-21T02:23:13;8.20;;;3.90;;
71125;SDS011;58785;55.566;38.058;2022-07-21T02:25:39;7.35;;;3.72;;
71125;SDS011;58785;55.566;38.058;2022-07-21T02:28:05;7.75;;;3.85;;
71125;SDS011;58785;55.566;38.058;2022-07-21T02:30:31;7.47;;;3.60;;
71125;SDS011;58785;55.566;38.058;2022-07-21T02:32:57;7.37;;;3.77;;
71125;SDS011;58785;55.566;38.058;2022-07-21T02:35:22;7.57;;;4.00;;
71125;SDS011;58785;55.566;38.058;2022-07-21T02:37:48;10.10;;;3.87;;
71125;SDS011;58785;55.566;38.058;2022-07-21T02:40:13;7.70;;;3.63;;
71125;SDS011;58785;55.566;38.058;2022-07-21T02:42:39;6.43;;;2.92;;
71125;SDS011;58785;55.566;38.058;2022-07-21T02:45:05;7.70;;;3.37;;
71125;SDS011;58785;55.566;38.058;2022-07-21T02:47:32;7.57;;;3.60;;
71125;SDS011;58785;55.566;38.058;2022-07-21T02:49:58;6.67;;;3.47;;
71125;SDS011;58785;55.566;38.058;2022-07-21T02:52:23;8.07;;;3.85;;
71125;SDS011;58785;55.566;38.058;2022-07-21T02:54:49;7.77;;;3.50;;
71125;SDS011;58785;55.566;38.058;2022-07-21T02:57:14;8.23;;;3.95;;
71125;SDS011;58785;55.566;38.058;2022-07-21T02:59:40;7.47;;;3.63;;
71125;SDS011;58785;55.566;38.058;2022-07-21T03:02:05;6.93;;;3.37;;
71125;SDS011;58785;55.566;38.058;2022-07-21T03:04:31;6.93;;;3.23;;
71125;SDS011;58785;55.566;38.058;2022-07-21T03:06:59;6.80;;;3.15;;
71125;SDS011;58785;55.566;38.058;2022-07-21T03:09:24;7.87;;;2.80;;
71125;SDS011;58785;55.566;38.058;2022-07-21T03:11:50;7.72;;;2.55;;
71125;SDS011;58785;55.566;38.058;2022-07-21T03:14:18;6.50;;;2.77;;
71125;SDS011;58785;55.566;38.058;2022-07-21T03:16:43;7.38;;;3.00;;
71125;SDS011;58785;55.566;38.058;2022-07-21T03:19:09;6.67;;;2.80;;
71125;SDS011;58785;55.566;38.058;2022-07-21T03:21:35;6.30;;;2.75;;
71125;SDS011;58785;55.566;38.058;2022-07-21T03:24:00;7.07;;;3.00;;
71125;SDS011;58785;55.566;38.058;2022-07-21T03:26:26;5.75;;;2.80;;
71125;SDS011;58785;55.566;38.058;2022-07-21T03:28:52;5.97;;;2.67;;
71125;SDS011;58785;55.566;38.058;2022-07-21T03:31:17;6.38;;;3.00;;
71125;SDS011;58785;55.566;38.058;2022-07-21T03:33:43;9.30;;;2.80;;
71125;SDS011;58785;55.566;38.058;2022-07-21T03:36:09;5.88;;;3.00;;
71125;SDS011;58785;55.566;38.058;2022-07-21T03:38:34;9.60;;;2.97;;
71125;SDS011;58785;55.566;38.058;2022-07-21T03:41:00;6.45;;;2.60;;
71125;SDS011;58785;55.566;38.058;2022-07-21T03:43:25;7.37;;;2.93;;
71125;SDS011;58785;55.566;38.058;2022-07-21T03:45:58;7.05;;;2.50;;
71125;SDS011;58785;55.566;38.058;2022-07-21T03:48:24;5.55;;;2.50;;
71125;SDS011;58785;55.566;38.058;2022-07-21T03:50:50;5.40;;;2.33;;
71125;SDS011;58785;55.566;38.058;2022-07-21T03:53:15;5.40;;;2.40;;
71125;SDS011;58785;55.566;38.058;2022-07-21T03:55:41;6.75;;;2.50;;
71125;SDS011;58785;55.566;38.058;2022-07-21T03:58:07;7.80;;;3.33;;
71125;SDS011;58785;55.566;38.058;2022-07-21T04:00:37;6.53;;;2.80;;
71125;SDS011;58785;55.566;38.058;2022-07-21T04:03:05;6.93;;;2.80;;
71125;SDS011;58785;55.566;38.058;2022-07-21T04:05:31;6.93;;;2.95;;
71125;SDS011;58785;55.566;38.058;2022-07-21T04:07:58;6.43;;;3.33;;
71125;SDS011;58785;55.566;38.058;2022-07-21T04:10:24;7.23;;;3.90;;
71125;SDS011;58785;55.566;38.058;2022-07-21T04:12:52;7.72;;;4.20;;
71125;SDS011;58785;55.566;38.058;2022-07-21T04:15:18;7.82;;;3.80;;
71125;SDS011;58785;55.566;38.058;2022-07-21T04:17:44;9.53;;;4.23;;
71125;SDS011;58785;55.566;38.058;2022-07-21T04:20:10;9.75;;;4.47;;
71125;SDS011;58785;55.566;38.058;2022-07-21T04:22:37;9.05;;;4.07;;
71125;SDS011;58785;55.566;38.058;2022-07-21T04:25:04;9.88;;;3.90;;
71125;SDS011;58785;55.566;38.058;2022-07-21T04:27:31;7.38;;;3.53;;
71125;SDS011;58785;55.566;38.058;2022-07-21T04:29:57;7.03;;;3.00;;
71125;SDS011;58785;55.566;38.058;2022-07-21T04:32:22;6.30;;;2.88;;
71125;SDS011;58785;55.566;38.058;2022-07-21T04:34:48;6.30;;;3.20;;
71125;SDS011;58785;55.566;38.058;2022-07-21T04:37:14;8.07;;;2.17;;
71125;SDS011;58785;55.566;38.058;2022-07-21T04:39:40;6.55;;;2.10;;
71125;SDS011;58785;55.566;38.058;2022-07-21T04:42:05;5.77;;;2.27;;
71125;SDS011;58785;55.566;38.058;2022-07-21T04:44:31;5.55;;;1.73;;
71125;SDS011;58785;55.566;38.058;2022-07-21T04:46:57;6.25;;;2.50;;
71125;SDS011;58785;55.566;38.058;2022-07-21T04:49:23;6.97;;;2.87;;
71125;SDS011;58785;55.566;38.058;2022-07-21T04:51:49;6.95;;;3.15;;
71125;SDS011;58785;55.566;38.058;2022-07-21T04:54:15;5.40;;;2.60;;
71125;SDS011;58785;55.566;38.058;2022-07-21T04:56:41;6.18;;;3.08;;
71125;SDS011;58785;55.566;38.058;2022-07-21T04:59:07;6.43;;;3.08;;
71125;SDS011;58785;55.566;38.058;2022-07-21T05:01:34;5.95;;;2.58;;
71125;SDS011;58785;55.566;38.058;2022-07-21T05:04:01;6.60;;;3.17;;
71125;SDS011;58785;55.566;38.058;2022-07-21T05:06:26;6.20;;;2.85;;
71125;SDS011;58785;55.566;38.058;2022-07-21T05:08:52;6.60;;;2.77;;
71125;SDS011;58785;55.566;38.058;2022-07-21T05:11:18;6.75;;;2.92;;
71125;SDS011;58785;55.566;38.058;2022-07-21T05:13:43;5.50;;;2.70;;
71125;SDS011;58785;55.566;38.058;2022-07-21T05:16:09;6.10;;;3.17;;
71125;SDS011;58785;55.566;38.058;2022-07-21T05:18:35;6.93;;;3.37;;
71125;SDS011;58785;55.566;38.058;2022-07-21T05:21:00;6.43;;;3.13;;
71125;SDS011;58785;55.566;38.058;2022-07-21T05:23:26;7.68;;;2.45;;
71125;SDS011;58785;55.566;38.058;2022-07-21T05:25:52;5.97;;;3.07;;
71125;SDS011;58785;55.566;38.058;2022-07-21T05:28:17;6.05;;;2.63;;
71125;SDS011;58785;55.566;38.058;2022-07-21T05:30:43;4.97;;;2.07;;
71125;SDS011;58785;55.566;38.058;2022-07-21T05:33:09;6.30;;;2.43;;
71125;SDS011;58785;55.566;38.058;2022-07-21T05:35:34;6.55;;;2.50;;
71125;SDS011;58785;55.566;38.058;2022-07-21T05:38:00;6.90;;;2.80;;
71125;SDS011;58785;55.566;38.058;2022-07-21T05:40:26;7.57;;;2.35;;
71125;SDS011;58785;55.566;38.058;2022-07-21T05:42:52;5.13;;;2.50;;
71125;SDS011;58785;55.566;38.058;2022-07-21T05:45:17;6.05;;;2.30;;
71125;SDS011;58785;55.566;38.058;2022-07-21T05:47:43;5.30;;;2.17;;
71125;SDS011;58785;55.566;38.058;2022-07-21T05:50:09;5.23;;;2.17;;
71125;SDS011;58785;55.566;38.058;2022-07-21T05:52:35;5.30;;;2.40;;
71125;SDS011;58785;55.566;38.058;2022-07-21T05:55:01;4.55;;;1.80;;
71125;SDS011;58785;55.566;38.058;2022-07-21T05:57:28;4.90;;;2.10;;
71125;SDS011;58785;55.566;38.058;2022-07-21T05:59:54;4.40;;;1.90;;
71125;SDS011;58785;55.566;38.058;2022-07-21T06:02:20;3.95;;;1.50;;
71125;SDS011;58785;55.566;38.058;2022-07-21T06:04:46;3.57;;;1.33;;
71125;SDS011;58785;55.566;38.058;2022-07-21T06:07:11;4.20;;;1.30;;
71125;SDS011;58785;55.566;38.058;2022-07-21T06:09:39;4.38;;;1.40;;
71125;SDS011;58785;55.566;38.058;2022-07-21T06:12:05;10.53;;;1.97;;
71125;SDS011;58785;55.566;38.058;2022-07-21T06:14:30;5.10;;;1.65;;
71125;SDS011;58785;55.566;38.058;2022-07-21T06:16:56;4.17;;;1.60;;
71125;SDS011;58785;55.566;38.058;2022-07-21T06:19:23;3.38;;;1.40;;
71125;SDS011;58785;55.566;38.058;2022-07-21T06:21:50;4.00;;;1.40;;
71125;SDS011;58785;55.566;38.058;2022-07-21T06:24:16;3.67;;;1.30;;
71125;SDS011;58785;55.566;38.058;2022-07-21T06:26:44;3.17;;;1.10;;
71125;SDS011;58785;55.566;38.058;2022-07-21T06:29:10;3.75;;;1.52;;
71125;SDS011;58785;55.566;38.058;2022-07-21T06:31:36;3.57;;;1.27;;
71125;SDS011;58785;55.566;38.058;2022-07-21T06:34:01;4.00;;;1.63;;
71125;SDS011;58785;55.566;38.058;2022-07-21T06:36:27;4.83;;;1.90;;
71125;SDS011;58785;55.566;38.058;2022-07-21T06:38:53;5.03;;;1.75;;
71125;SDS011;58785;55.566;38.058;2022-07-21T06:41:18;4.43;;;1.60;;
71125;SDS011;58785;55.566;38.058;2022-07-21T06:43:44;5.00;;;2.25;;
71125;SDS011;58785;55.566;38.058;2022-07-21T06:46:09;5.00;;;2.43;;
71125;SDS011;58785;55.566;38.058;2022-07-21T06:48:35;5.77;;;2.07;;
71125;SDS011;58785;55.566;38.058;2022-07-21T06:51:00;5.53;;;2.30;;
71125;SDS011;58785;55.566;38.058;2022-07-21T06:53:26;4.73;;;2.20;;
71125;SDS011;58785;55.566;38.058;2022-07-21T06:55:52;5.63;;;2.17;;
71125;SDS011;58785;55.566;38.058;2022-07-21T06:58:19;5.97;;;2.00;;
71125;SDS011;58785;55.566;38.058;2022-07-21T07:00:48;5.93;;;2.03;;
71125;SDS011;58785;55.566;38.058;2022-07-21T07:03:15;5.40;;;2.10;;
71125;SDS011;58785;55.566;38.058;2022-07-21T07:05:42;5.15;;;1.92;;
71125;SDS011;58785;55.566;38.058;2022-07-21T07:08:09;7.10;;;2.00;;
71125;SDS011;58785;55.566;38.058;2022-07-21T07:10:35;5.20;;;2.08;;
71125;SDS011;58785;55.566;38.058;2022-07-21T07:13:01;7.17;;;2.57;;
71125;SDS011;58785;55.566;38.058;2022-07-21T07:15:27;6.30;;;2.65;;
71125;SDS011;58785;55.566;38.058;2022-07-21T07:17:53;6.72;;;2.53;;
71125;SDS011;58785;55.566;38.058;2022-07-21T07:20:19;5.88;;;2.88;;
71125;SDS011;58785;55.566;38.058;2022-07-21T07:22:46;5.95;;;2.47;;
71125;SDS011;58785;55.566;38.058;2022-07-21T07:25:11;6.87;;;3.33;;
71125;SDS011;58785;55.566;38.058;2022-07-21T07:27:37;8.13;;;4.57;;
71125;SDS011;58785;55.566;38.058;2022-07-21T07:30:03;7.35;;;3.60;;
71125;SDS011;58785;55.566;38.058;2022-07-21T07:32:29;7.40;;;3.70;;
71125;SDS011;58785;55.566;38.058;2022-07-21T07:34:55;9.00;;;3.70;;
71125;SDS011;58785;55.566;38.058;2022-07-21T07:37:20;7.43;;;3.60;;
71125;SDS011;58785;55.566;38.058;2022-07-21T07:39:46;6.90;;;3.60;;
71125;SDS011;58785;55.566;38.058;2022-07-21T07:42:12;6.80;;;3.33;;
71125;SDS011;58785;55.566;38.058;2022-07-21T07:44:37;6.50;;;3.20;;
71125;SDS011;58785;55.566;38.058;2022-07-21T07:47:03;6.88;;;2.85;;
71125;SDS011;58785;55.566;38.058;2022-07-21T07:49:29;7.60;;;3.80;;
71125;SDS011;58785;55.566;38.058;2022-07-21T07:51:55;6.70;;;3.47;;
71125;SDS011;58785;55.566;38.058;2022-07-21T07:54:21;5.68;;;2.78;;
71125;SDS011;58785;55.566;38.058;2022-07-21T07:56:47;6.50;;;2.90;;
71125;SDS011;58785;55.566;38.058;2022-07-21T07:59:13;6.55;;;2.80;;
71125;SDS011;58785;55.566;38.058;2022-07-21T08:01:39;7.13;;;2.97;;
71125;SDS011;58785;55.566;38.058;2022-07-21T08:04:05;6.13;;;2.55;;
71125;SDS011;58785;55.566;38.058;2022-07-21T08:06:30;5.78;;;2.53;;
71125;SDS011;58785;55.566;38.058;2022-07-21T08:08:56;5.57;;;2.87;;
71125;SDS011;58785;55.566;38.058;2022-07-21T08:11:22;5.53;;;2.23;;
71125;SDS011;58785;55.566;38.058;2022-07-21T08:13:47;5.03;;;2.50;;
71125;SDS011;58785;55.566;38.058;2022-07-21T08:16:13;4.95;;;2.40;;
71125;SDS011;58785;55.566;38.058;2022-07-21T08:18:41;4.95;;;2.35;;
71125;SDS011;58785;55.566;38.058;2022-07-21T08:21:08;4.37;;;1.60;;
71125;SDS011;58785;55.566;38.058;2022-07-21T08:23:34;4.53;;;2.03;;
71125;SDS011;58785;55.566;38.058;2022-07-21T08:26:00;4.47;;;1.80;;
71125;SDS011;58785;55.566;38.058;2022-07-21T08:28:26;4.60;;;2.03;;
71125;SDS011;58785;55.566;38.058;2022-07-21T08:30:52;5.15;;;2.05;;
71125;SDS011;58785;55.566;38.058;2022-07-21T08:33:17;4.27;;;1.83;;
71125;SDS011;58785;55.566;38.058;2022-07-21T08:35:43;4.30;;;1.80;;
71125;SDS011;58785;55.566;38.058;2022-07-21T08:38:09;5.37;;;2.00;;
71125;SDS011;58785;55.566;38.058;2022-07-21T08:40:37;5.07;;;1.50;;
71125;SDS011;58785;55.566;38.058;2022-07-21T08:43:04;4.32;;;1.85;;
71125;SDS011;58785;55.566;38.058;2022-07-21T08:45:33;4.18;;;1.77;;
71125;SDS011;58785;55.566;38.058;2022-07-21T08:48:00;4.27;;;2.00;;
71125;SDS011;58785;55.566;38.058;2022-07-21T08:50:27;4.60;;;2.00;;
71125;SDS011;58785;55.566;38.058;2022-07-21T08:52:55;4.55;;;2.10;;
71125;SDS011;58785;55.566;38.058;2022-07-21T08:55:20;4.50;;;2.23;;
71125;SDS011;58785;55.566;38.058;2022-07-21T08:57:47;5.00;;;1.73;;
71125;SDS011;58785;55.566;38.058;2022-07-21T09:00:13;4.68;;;1.67;;
71125;SDS011;58785;55.566;38.058;2022-07-21T09:02:39;4.40;;;2.00;;
71125;SDS011;58785;55.566;38.058;2022-07-21T09:05:05;4.10;;;1.77;;
71125;SDS011;58785;55.566;38.058;2022-07-21T09:07:47;4.13;;;1.77;;
71125;SDS011;58785;55.566;38.058;2022-07-21T09:10:14;5.07;;;2.00;;
71125;SDS011;58785;55.566;38.058;2022-07-21T09:12:50;5.27;;;1.93;;
71125;SDS011;58785;55.566;38.058;2022-07-21T09:15:19;5.00;;;1.80;;
71125;SDS011;58785;55.566;38.058;2022-07-21T09:18:02;4.43;;;1.80;;
71125;SDS011;58785;55.566;38.058;2022-07-21T09:20:31;4.15;;;2.08;;
71125;SDS011;58785;55.566;38.058;2022-07-21T09:23:12;4.20;;;1.70;;
71125;SDS011;58785;55.566;38.058;2022-07-21T09:25:44;3.87;;;1.87;;
71125;SDS011;58785;55.566;38.058;2022-07-21T09:33:28;4.95;;;2.13;;
71125;SDS011;58785;55.566;38.058;2022-07-21T09:35:58;4.18;;;2.05;;
71125;SDS011;58785;55.566;38.058;2022-07-21T09:38:30;5.80;;;1.53;;
71125;SDS011;58785;55.566;38.058;2022-07-21T09:41:14;5.43;;;1.98;;
71125;SDS011;58785;55.566;38.058;2022-07-21T09:43:48;7.53;;;2.42;;
71125;SDS011;58785;55.566;38.058;2022-07-21T09:46:36;7.07;;;2.25;;
71125;SDS011;58785;55.566;38.058;2022-07-21T09:49:01;6.25;;;2.17;;
71125;SDS011;58785;55.566;38.058;2022-07-21T09:51:28;7.70;;;2.00;;
71125;SDS011;58785;55.566;38.058;2022-07-21T09:54:01;6.75;;;2.15;;
71125;SDS011;58785;55.566;38.058;2022-07-21T09:56:31;6.75;;;2.28;;
71125;SDS011;58785;55.566;38.058;2022-07-21T09:58:59;5.93;;;2.35;;
71125;SDS011;58785;55.566;38.058;2022-07-21T10:01:27;5.03;;;2.60;;
71125;SDS011;58785;55.566;38.058;2022-07-21T10:03:54;5.97;;;2.43;;
71125;SDS011;58785;55.566;38.058;2022-07-21T10:06:39;5.05;;;2.22;;
71125;SDS011;58785;55.566;38.058;2022-07-21T10:09:06;6.88;;;2.40;;
71125;SDS011;58785;55.566;38.058;2022-07-21T10:11:33;8.02;;;2.78;;
71125;SDS011;58785;55.566;38.058;2022-07-21T10:13:59;6.00;;;2.40;;
71125;SDS011;58785;55.566;38.058;2022-07-21T10:16:25;5.80;;;2.50;;
71125;SDS011;58785;55.566;38.058;2022-07-21T10:19:08;4.90;;;2.25;;
71125;SDS011;58785;55.566;38.058;2022-07-21T10:24:15;5.77;;;2.37;;
71125;SDS011;58785;55.566;38.058;2022-07-21T10:27:01;5.00;;;2.38;;
71125;SDS011;58785;55.566;38.058;2022-07-21T10:32:13;5.13;;;2.67;;
71125;SDS011;58785;55.566;38.058;2022-07-21T10:34:42;5.05;;;2.50;;
71125;SDS011;58785;55.566;38.058;2022-07-21T10:37:09;5.30;;;2.93;;
71125;SDS011;58785;55.566;38.058;2022-07-21T10:39:35;6.53;;;2.22;;
71125;SDS011;58785;55.566;38.058;2022-07-21T10:42:13;5.47;;;2.58;;
71125;SDS011;58785;55.566;38.058;2022-07-21T10:44:41;5.75;;;2.83;;
71125;SDS011;58785;55.566;38.058;2022-07-21T10:57:43;5.05;;;1.90;;
71125;SDS011;58785;55.566;38.058;2022-07-21T11:00:29;4.50;;;1.85;;
71125;SDS011;58785;55.566;38.058;2022-07-21T11:03:00;4.55;;;1.80;;
71125;SDS011;58785;55.566;38.058;2022-07-21T11:05:29;5.67;;;2.07;;
71125;SDS011;58785;55.566;38.058;2022-07-21T11:08:16;7.57;;;1.65;;
71125;SDS011;58785;55.566;38.058;2022-07-21T11:10:44;4.45;;;1.83;;
71125;SDS011;58785;55.566;38.058;2022-07-21T11:13:15;5.50;;;2.05;;
71125;SDS011;58785;55.566;38.058;2022-07-21T11:15:57;5.68;;;2.30;;
71125;SDS011;58785;55.566;38.058;2022-07-21T11:18:29;5.40;;;2.10;;
71125;SDS011;58785;55.566;38.058;2022-07-21T11:26:03;4.80;;;2.10;;
71125;SDS011;58785;55.566;38.058;2022-07-21T11:28:28;4.63;;;2.20;;
71125;SDS011;58785;55.566;38.058;2022-07-21T11:31:11;4.63;;;2.10;;
71125;SDS011;58785;55.566;38.058;2022-07-21T11:33:40;5.22;;;1.77;;
71125;SDS011;58785;55.566;38.058;2022-07-21T11:36:07;4.60;;;2.10;;
71125;SDS011;58785;55.566;38.058;2022-07-21T11:38:33;5.97;;;2.38;;
71125;SDS011;58785;55.566;38.058;2022-07-21T11:41:18;5.10;;;2.17;;
71125;SDS011;58785;55.566;38.058;2022-07-21T11:43:45;4.80;;;2.00;;
71125;SDS011;58785;55.566;38.058;2022-07-21T11:46:12;4.83;;;2.00;;
71125;SDS011;58785;55.566;38.058;2022-07-21T11:48:39;5.47;;;2.60;;
71125;SDS011;58785;55.566;38.058;2022-07-21T11:51:05;4.97;;;2.28;;
71125;SDS011;58785;55.566;38.058;2022-07-21T11:53:31;5.00;;;2.38;;
71125;SDS011;58785;55.566;38.058;2022-07-21T11:55:57;5.00;;;2.47;;
71125;SDS011;58785;55.566;38.058;2022-07-21T11:58:23;5.63;;;2.13;;
71125;SDS011;58785;55.566;38.058;2022-07-21T12:00:52;4.93;;;2.35;;
71125;SDS011;58785;55.566;38.058;2022-07-21T12:03:28;5.05;;;2.20;;
71125;SDS011;58785;55.566;38.058;2022-07-21T12:05:54;5.10;;;2.37;;
71125;SDS011;58785;55.566;38.058;2022-07-21T12:08:21;5.32;;;2.60;;
71125;SDS011;58785;55.566;38.058;2022-07-21T12:10:47;4.88;;;1.92;;
71125;SDS011;58785;55.566;38.058;2022-07-21T12:13:13;5.00;;;2.30;;
71125;SDS011;58785;55.566;38.058;2022-07-21T12:15:38;5.23;;;1.97;;
71125;SDS011;58785;55.566;38.058;2022-07-21T12:18:20;5.28;;;2.22;;
71125;SDS011;58785;55.566;38.058;2022-07-21T12:20:59;4.88;;;2.13;;
71125;SDS011;58785;55.566;38.058;2022-07-21T12:23:27;4.97;;;2.40;;
71125;SDS011;58785;55.566;38.058;2022-07-21T12:25:56;5.05;;;1.70;;
71125;SDS011;58785;55.566;38.058;2022-07-21T12:28:45;5.07;;;2.00;;
71125;SDS011;58785;55.566;38.058;2022-07-21T12:31:18;7.50;;;2.42;;
71125;SDS011;58785;55.566;38.058;2022-07-21T12:33:52;5.07;;;2.13;;
71125;SDS011;58785;55.566;38.058;2022-07-21T12:36:21;4.47;;;2.00;;
71125;SDS011;58785;55.566;38.058;2022-07-21T12:38:47;6.07;;;2.05;;
71125;SDS011;58785;55.566;38.058;2022-07-21T12:41:17;5.60;;;2.47;;
71125;SDS011;58785;55.566;38.058;2022-07-21T12:43:57;4.95;;;2.13;;
71125;SDS011;58785;55.566;38.058;2022-07-21T12:46:33;5.15;;;2.25;;
71125;SDS011;58785;55.566;38.058;2022-07-21T12:49:04;5.07;;;2.05;;
71125;SDS011;58785;55.566;38.058;2022-07-21T12:51:30;4.97;;;2.35;;
71125;SDS011;58785;55.566;38.058;2022-07-21T12:53:56;4.70;;;2.20;;
71125;SDS011;58785;55.566;38.058;2022-07-21T12:56:23;4.45;;;2.03;;
71125;SDS011;58785;55.566;38.058;2022-07-21T12:58:51;5.30;;;2.60;;
71125;SDS011;58785;55.566;38.058;2022-07-21T13:01:18;7.07;;;2.40;;
71125;SDS011;58785;55.566;38.058;2022-07-21T13:03:45;4.78;;;2.20;;
71125;SDS011;58785;55.566;38.058;2022-07-21T13:06:11;4.10;;;2.00;;
71125;SDS011;58785;55.566;38.058;2022-07-21T13:08:42;4.78;;;2.28;;
71125;SDS011;58785;55.566;38.058;2022-07-21T13:11:15;5.93;;;2.33;;
71125;SDS011;58785;55.566;38.058;2022-07-21T13:13:46;4.07;;;1.70;;
71125;SDS011;58785;55.566;38.058;2022-07-21T13:16:12;5.50;;;2.20;;
71125;SDS011;58785;55.566;38.058;2022-07-21T13:18:39;4.38;;;2.08;;
71125;SDS011;58785;55.566;38.058;2022-07-21T13:21:05;4.88;;;2.33;;
71125;SDS011;58785;55.566;38.058;2022-07-21T13:23:31;4.13;;;1.67;;
71125;SDS011;58785;55.566;38.058;2022-07-21T13:25:57;5.03;;;2.13;;
71125;SDS011;58785;55.566;38.058;2022-07-21T13:28:22;4.30;;;1.80;;
71125;SDS011;58785;55.566;38.058;2022-07-21T13:30:48;6.20;;;1.90;;
71125;SDS011;58785;55.566;38.058;2022-07-21T13:33:14;4.73;;;2.17;;
71125;SDS011;58785;55.566;38.058;2022-07-21T13:35:40;4.78;;;1.80;;
71125;SDS011;58785;55.566;38.058;2022-07-21T13:38:06;4.47;;;1.60;;
71125;SDS011;58785;55.566;38.058;2022-07-21T13:40:32;6.33;;;1.93;;
71125;SDS011;58785;55.566;38.058;2022-07-21T13:42:57;5.50;;;1.90;;
71125;SDS011;58785;55.566;38.058;2022-07-21T13:45:23;4.15;;;1.70;;
71125;SDS011;58785;55.566;38.058;2022-07-21T13:47:49;5.77;;;2.03;;
71125;SDS011;58785;55.566;38.058;2022-07-21T13:50:15;4.70;;;1.45;;
71125;SDS011;58785;55.566;38.058;2022-07-21T13:52:41;4.60;;;1.80;;
71125;SDS011;58785;55.566;38.058;2022-07-21T13:55:07;5.27;;;1.67;;
71125;SDS011;58785;55.566;38.058;2022-07-21T13:57:34;4.18;;;1.90;;
71125;SDS011;58785;55.566;38.058;2022-07-21T14:00:03;4.22;;;1.67;;
71125;SDS011;58785;55.566;38.058;2022-07-21T14:02:32;5.57;;;1.70;;
71125;SDS011;58785;55.566;38.058;2022-07-21T14:04:58;4.87;;;2.00;;
71125;SDS011;58785;55.566;38.058;2022-07-21T14:07:23;4.97;;;2.20;;
71125;SDS011;58785;55.566;38.058;2022-07-21T14:09:49;4.57;;;1.80;;
71125;SDS011;58785;55.566;38.058;2022-07-21T14:12:15;6.53;;;2.00;;
71125;SDS011;58785;55.566;38.058;2022-07-21T14:14:41;5.40;;;2.30;;
71125;SDS011;58785;55.566;38.058;2022-07-21T14:17:12;4.15;;;1.63;;
71125;SDS011;58785;55.566;38.058;2022-07-21T14:19:39;4.77;;;2.10;;
71125;SDS011;58785;55.566;38.058;2022-07-21T14:22:06;3.80;;;1.63;;
71125;SDS011;58785;55.566;38.058;2022-07-21T14:24:32;7.22;;;1.95;;
71125;SDS011;58785;55.566;38.058;2022-07-21T14:27:17;9.82;;;1.50;;
71125;SDS011;58785;55.566;38.058;2022-07-21T14:29:42;4.70;;;1.60;;
71125;SDS011;58785;55.566;38.058;2022-07-21T14:32:08;4.32;;;1.83;;
71125;SDS011;58785;55.566;38.058;2022-07-21T14:34:33;4.00;;;1.63;;
71125;SDS011;58785;55.566;38.058;2022-07-21T14:36:59;4.18;;;1.60;;
71125;SDS011;58785;55.566;38.058;2022-07-21T14:39:25;4.53;;;1.60;;
71125;SDS011;58785;55.566;38.058;2022-07-21T14:41:50;4.93;;;1.90;;
71125;SDS011;58785;55.566;38.058;2022-07-21T14:44:16;5.30;;;2.20;;
71125;SDS011;58785;55.566;38.058;2022-07-21T14:46:42;4.70;;;1.90;;
71125;SDS011;58785;55.566;38.058;2022-07-21T14:49:07;7.80;;;1.83;;
71125;SDS011;58785;55.566;38.058;2022-07-21T14:51:33;5.07;;;1.83;;
71125;SDS011;58785;55.566;38.058;2022-07-21T14:54:02;6.15;;;1.50;;
71125;SDS011;58785;55.566;38.058;2022-07-21T14:56:35;5.30;;;1.83;;
71125;SDS011;58785;55.566;38.058;2022-07-21T14:59:00;3.90;;;1.40;;
71125;SDS011;58785;55.566;38.058;2022-07-21T15:01:26;4.73;;;1.60;;